sensor_id;sensor_type;location;lat;lon;timestamp;P1;durP1;ratioP1;P2;durP2;ratioP2
66946;SDS011;53853;51.982;5.928;2023-02-13T00:00:55;20.58;;;15.48;;
66946;SDS011;53853;51.982;5.928;2023-02-13T00:03:24;22.85;;;16.50;;
66946;SDS011;53853;51.982;5.928;2023-02-13T00:05:57;22.25;;;16.67;;
66946;SDS011;53853;51.982;5.928;2023-02-13T00:08:27;20.30;;;15.18;;
66946;SDS011;53853;51.982;5.928;2023-02-13T00:10:57;20.27;;;15.60;;
66946;SDS011;53853;51.982;5.928;2023-02-13T00:13:27;24.05;;;16.42;;
66946;SDS011;53853;51.982;5.928;2023-02-13T00:15:57;21.67;;;15.57;;
66946;SDS011;53853;51.982;5.928;2023-02-13T00:18:28;23.33;;;15.40;;
66946;SDS011;53853;51.982;5.928;2023-02-13T00:21:04;19.55;;;15.48;;
66946;SDS011;53853;51.982;5.928;2023-02-13T00:23:37;20.48;;;15.43;;
66946;SDS011;53853;51.982;5.928;2023-02-13T00:26:08;21.17;;;16.05;;
66946;SDS011;53853;51.982;5.928;2023-02-13T00:28:43;19.55;;;14.85;;
66946;SDS011;53853;51.982;5.928;2023-02-13T00:31:14;22.38;;;15.98;;
66946;SDS011;53853;51.982;5.928;2023-02-13T00:33:47;19.60;;;14.52;;
66946;SDS011;53853;51.982;5.928;2023-02-13T00:36:20;20.02;;;14.68;;
66946;SDS011;53853;51.982;5.928;2023-02-13T00:38:50;20.55;;;14.82;;
66946;SDS011;53853;51.982;5.928;2023-02-13T00:41:21;20.38;;;15.55;;
66946;SDS011;53853;51.982;5.928;2023-02-13T00:43:51;18.05;;;13.23;;
66946;SDS011;53853;51.982;5.928;2023-02-13T00:46:22;21.45;;;15.32;;
66946;SDS011;53853;51.982;5.928;2023-02-13T00:48:52;20.92;;;15.63;;
66946;SDS011;53853;51.982;5.928;2023-02-13T00:51:25;20.98;;;15.35;;
66946;SDS011;53853;51.982;5.928;2023-02-13T00:53:56;23.17;;;16.20;;
66946;SDS011;53853;51.982;5.928;2023-02-13T00:56:26;20.05;;;15.18;;
66946;SDS011;53853;51.982;5.928;2023-02-13T00:58:56;21.88;;;15.90;;
66946;SDS011;53853;51.982;5.928;2023-02-13T01:01:26;21.48;;;15.98;;
66946;SDS011;53853;51.982;5.928;2023-02-13T01:03:57;20.63;;;14.93;;
66946;SDS011;53853;51.982;5.928;2023-02-13T01:06:30;18.70;;;14.52;;
66946;SDS011;53853;51.982;5.928;2023-02-13T01:09:01;19.02;;;13.93;;
66946;SDS011;53853;51.982;5.928;2023-02-13T01:11:31;21.40;;;15.80;;
66946;SDS011;53853;51.982;5.928;2023-02-13T01:14:01;22.42;;;16.27;;
66946;SDS011;53853;51.982;5.928;2023-02-13T01:16:31;20.45;;;14.75;;
66946;SDS011;53853;51.982;5.928;2023-02-13T01:19:01;19.17;;;15.05;;
66946;SDS011;53853;51.982;5.928;2023-02-13T01:21:34;20.27;;;16.75;;
66946;SDS011;53853;51.982;5.928;2023-02-13T01:24:04;23.55;;;17.77;;
66946;SDS011;53853;51.982;5.928;2023-02-13T01:26:35;21.25;;;15.38;;
66946;SDS011;53853;51.982;5.928;2023-02-13T01:29:05;21.73;;;16.17;;
66946;SDS011;53853;51.982;5.928;2023-02-13T01:31:35;21.90;;;14.95;;
66946;SDS011;53853;51.982;5.928;2023-02-13T01:34:05;21.98;;;15.75;;
66946;SDS011;53853;51.982;5.928;2023-02-13T01:36:37;20.73;;;14.73;;
66946;SDS011;53853;51.982;5.928;2023-02-13T01:39:09;20.42;;;14.90;;
66946;SDS011;53853;51.982;5.928;2023-02-13T01:47:14;23.48;;;15.68;;
66946;SDS011;53853;51.982;5.928;2023-02-13T01:49:58;20.25;;;15.40;;
66946;SDS011;53853;51.982;5.928;2023-02-13T01:52:38;20.83;;;15.55;;
66946;SDS011;53853;51.982;5.928;2023-02-13T01:55:11;21.73;;;15.75;;
66946;SDS011;53853;51.982;5.928;2023-02-13T01:57:43;22.67;;;16.48;;
66946;SDS011;53853;51.982;5.928;2023-02-13T02:00:19;24.30;;;17.70;;
66946;SDS011;53853;51.982;5.928;2023-02-13T02:02:50;24.67;;;17.17;;
66946;SDS011;53853;51.982;5.928;2023-02-13T02:05:25;23.00;;;16.35;;
66946;SDS011;53853;51.982;5.928;2023-02-13T02:08:01;21.05;;;14.82;;
66946;SDS011;53853;51.982;5.928;2023-02-13T02:10:36;24.13;;;17.20;;
66946;SDS011;53853;51.982;5.928;2023-02-13T02:13:07;20.83;;;15.57;;
66946;SDS011;53853;51.982;5.928;2023-02-13T02:15:40;20.15;;;15.40;;
66946;SDS011;53853;51.982;5.928;2023-02-13T02:18:12;23.05;;;15.98;;
66946;SDS011;53853;51.982;5.928;2023-02-13T02:24:01;25.35;;;18.05;;
66946;SDS011;53853;51.982;5.928;2023-02-13T02:33:05;24.95;;;17.52;;
66946;SDS011;53853;51.982;5.928;2023-02-13T02:36:02;23.42;;;16.42;;
66946;SDS011;53853;51.982;5.928;2023-02-13T02:38:53;24.83;;;18.55;;
66946;SDS011;53853;51.982;5.928;2023-02-13T02:41:34;23.83;;;18.08;;
66946;SDS011;53853;51.982;5.928;2023-02-13T02:44:25;23.80;;;17.42;;
66946;SDS011;53853;51.982;5.928;2023-02-13T02:47:07;22.88;;;17.08;;
66946;SDS011;53853;51.982;5.928;2023-02-13T02:50:02;26.02;;;18.85;;
66946;SDS011;53853;51.982;5.928;2023-02-13T02:52:43;22.73;;;18.02;;
66946;SDS011;53853;51.982;5.928;2023-02-13T02:55:27;29.48;;;19.52;;
66946;SDS011;53853;51.982;5.928;2023-02-13T02:58:02;22.52;;;16.98;;
66946;SDS011;53853;51.982;5.928;2023-02-13T03:00:54;25.27;;;18.20;;
66946;SDS011;53853;51.982;5.928;2023-02-13T03:03:39;23.73;;;17.75;;
66946;SDS011;53853;51.982;5.928;2023-02-13T03:06:25;27.85;;;20.05;;
66946;SDS011;53853;51.982;5.928;2023-02-13T03:09:03;27.23;;;19.30;;
66946;SDS011;53853;51.982;5.928;2023-02-13T03:11:50;26.25;;;18.85;;
66946;SDS011;53853;51.982;5.928;2023-02-13T03:14:36;25.27;;;18.40;;
66946;SDS011;53853;51.982;5.928;2023-02-13T03:17:07;25.77;;;19.98;;
66946;SDS011;53853;51.982;5.928;2023-02-13T03:19:55;25.67;;;18.38;;
66946;SDS011;53853;51.982;5.928;2023-02-13T03:22:53;27.02;;;20.27;;
66946;SDS011;53853;51.982;5.928;2023-02-13T03:25:33;26.83;;;20.35;;
66946;SDS011;53853;51.982;5.928;2023-02-13T03:28:13;25.90;;;20.15;;
66946;SDS011;53853;51.982;5.928;2023-02-13T03:31:03;26.30;;;19.45;;
66946;SDS011;53853;51.982;5.928;2023-02-13T03:33:49;25.77;;;18.98;;
66946;SDS011;53853;51.982;5.928;2023-02-13T03:36:28;26.13;;;18.67;;
66946;SDS011;53853;51.982;5.928;2023-02-13T03:39:26;26.35;;;19.63;;
66946;SDS011;53853;51.982;5.928;2023-02-13T03:42:06;27.13;;;20.77;;
66946;SDS011;53853;51.982;5.928;2023-02-13T03:44:41;27.15;;;19.58;;
66946;SDS011;53853;51.982;5.928;2023-02-13T03:47:34;27.87;;;19.63;;
66946;SDS011;53853;51.982;5.928;2023-02-13T03:50:06;24.27;;;19.23;;
66946;SDS011;53853;51.982;5.928;2023-02-13T03:52:38;28.20;;;21.10;;
66946;SDS011;53853;51.982;5.928;2023-02-13T03:55:16;28.95;;;20.70;;
66946;SDS011;53853;51.982;5.928;2023-02-13T03:58:02;27.92;;;20.42;;
66946;SDS011;53853;51.982;5.928;2023-02-13T04:00:49;28.42;;;19.58;;
66946;SDS011;53853;51.982;5.928;2023-02-13T04:03:23;25.95;;;18.48;;
66946;SDS011;53853;51.982;5.928;2023-02-13T04:05:57;25.73;;;19.98;;
66946;SDS011;53853;51.982;5.928;2023-02-13T04:08:32;30.67;;;21.05;;
66946;SDS011;53853;51.982;5.928;2023-02-13T04:11:06;25.92;;;20.25;;
66946;SDS011;53853;51.982;5.928;2023-02-13T04:13:42;27.55;;;20.42;;
66946;SDS011;53853;51.982;5.928;2023-02-13T04:16:18;26.35;;;19.48;;
66946;SDS011;53853;51.982;5.928;2023-02-13T04:18:55;26.45;;;20.35;;
66946;SDS011;53853;51.982;5.928;2023-02-13T04:21:26;23.90;;;17.75;;
66946;SDS011;53853;51.982;5.928;2023-02-13T04:23:59;30.33;;;20.10;;
66946;SDS011;53853;51.982;5.928;2023-02-13T04:26:34;29.58;;;20.58;;
66946;SDS011;53853;51.982;5.928;2023-02-13T04:29:05;28.63;;;21.73;;
66946;SDS011;53853;51.982;5.928;2023-02-13T04:31:36;26.58;;;20.40;;
66946;SDS011;53853;51.982;5.928;2023-02-13T04:34:06;26.20;;;21.10;;
66946;SDS011;53853;51.982;5.928;2023-02-13T04:36:36;24.77;;;18.40;;
66946;SDS011;53853;51.982;5.928;2023-02-13T04:39:06;23.73;;;18.30;;
66946;SDS011;53853;51.982;5.928;2023-02-13T04:41:39;27.75;;;19.63;;
66946;SDS011;53853;51.982;5.928;2023-02-13T04:44:08;28.25;;;19.88;;
66946;SDS011;53853;51.982;5.928;2023-02-13T04:46:38;25.85;;;20.13;;
66946;SDS011;53853;51.982;5.928;2023-02-13T04:49:08;28.67;;;21.00;;
66946;SDS011;53853;51.982;5.928;2023-02-13T04:51:38;29.50;;;22.05;;
66946;SDS011;53853;51.982;5.928;2023-02-13T04:54:09;28.60;;;20.73;;
66946;SDS011;53853;51.982;5.928;2023-02-13T04:56:41;27.17;;;21.23;;
66946;SDS011;53853;51.982;5.928;2023-02-13T04:59:11;28.48;;;21.27;;
66946;SDS011;53853;51.982;5.928;2023-02-13T05:01:41;28.85;;;21.70;;
66946;SDS011;53853;51.982;5.928;2023-02-13T05:04:11;24.92;;;19.55;;
66946;SDS011;53853;51.982;5.928;2023-02-13T05:06:42;27.85;;;19.92;;
66946;SDS011;53853;51.982;5.928;2023-02-13T05:09:12;28.00;;;20.95;;
66946;SDS011;53853;51.982;5.928;2023-02-13T05:11:44;26.05;;;19.02;;
66946;SDS011;53853;51.982;5.928;2023-02-13T05:14:14;29.98;;;21.10;;
66946;SDS011;53853;51.982;5.928;2023-02-13T05:16:44;28.45;;;20.80;;
66946;SDS011;53853;51.982;5.928;2023-02-13T05:19:14;26.00;;;20.90;;
66946;SDS011;53853;51.982;5.928;2023-02-13T05:21:44;26.38;;;19.88;;
66946;SDS011;53853;51.982;5.928;2023-02-13T05:24:41;29.50;;;21.38;;
66946;SDS011;53853;51.982;5.928;2023-02-13T05:27:14;28.23;;;21.23;;
66946;SDS011;53853;51.982;5.928;2023-02-13T05:29:43;28.20;;;20.98;;
66946;SDS011;53853;51.982;5.928;2023-02-13T05:32:11;28.55;;;20.80;;
66946;SDS011;53853;51.982;5.928;2023-02-13T05:34:41;27.75;;;20.92;;
66946;SDS011;53853;51.982;5.928;2023-02-13T05:37:11;28.20;;;20.45;;
66946;SDS011;53853;51.982;5.928;2023-02-13T05:39:40;27.05;;;19.40;;
66946;SDS011;53853;51.982;5.928;2023-02-13T05:42:10;30.80;;;22.13;;
66946;SDS011;53853;51.982;5.928;2023-02-13T05:44:43;26.15;;;20.15;;
66946;SDS011;53853;51.982;5.928;2023-02-13T05:47:13;28.00;;;21.15;;
66946;SDS011;53853;51.982;5.928;2023-02-13T05:49:42;28.88;;;21.45;;
66946;SDS011;53853;51.982;5.928;2023-02-13T05:52:12;27.52;;;20.67;;
66946;SDS011;53853;51.982;5.928;2023-02-13T05:54:42;32.42;;;20.50;;
66946;SDS011;53853;51.982;5.928;2023-02-13T05:57:15;29.35;;;22.83;;
66946;SDS011;53853;51.982;5.928;2023-02-13T05:59:45;30.55;;;20.90;;
66946;SDS011;53853;51.982;5.928;2023-02-13T06:02:14;28.38;;;21.05;;
66946;SDS011;53853;51.982;5.928;2023-02-13T06:04:44;28.75;;;21.52;;
66946;SDS011;53853;51.982;5.928;2023-02-13T06:07:14;28.10;;;21.48;;
66946;SDS011;53853;51.982;5.928;2023-02-13T06:09:44;27.50;;;20.45;;
66946;SDS011;53853;51.982;5.928;2023-02-13T06:12:17;26.40;;;20.08;;
66946;SDS011;53853;51.982;5.928;2023-02-13T06:14:47;28.30;;;20.92;;
66946;SDS011;53853;51.982;5.928;2023-02-13T06:17:16;28.02;;;20.92;;
66946;SDS011;53853;51.982;5.928;2023-02-13T06:19:46;28.33;;;19.88;;
66946;SDS011;53853;51.982;5.928;2023-02-13T06:22:16;25.17;;;19.27;;
66946;SDS011;53853;51.982;5.928;2023-02-13T06:24:46;27.48;;;20.45;;
66946;SDS011;53853;51.982;5.928;2023-02-13T06:27:19;28.20;;;19.77;;
66946;SDS011;53853;51.982;5.928;2023-02-13T06:29:48;25.13;;;19.88;;
66946;SDS011;53853;51.982;5.928;2023-02-13T06:32:18;27.92;;;19.98;;
66946;SDS011;53853;51.982;5.928;2023-02-13T06:34:48;29.48;;;20.77;;
66946;SDS011;53853;51.982;5.928;2023-02-13T06:37:18;29.65;;;22.02;;
66946;SDS011;53853;51.982;5.928;2023-02-13T06:39:48;25.98;;;21.73;;
66946;SDS011;53853;51.982;5.928;2023-02-13T06:42:20;24.90;;;18.73;;
66946;SDS011;53853;51.982;5.928;2023-02-13T06:44:50;25.92;;;19.80;;
66946;SDS011;53853;51.982;5.928;2023-02-13T06:47:20;24.23;;;18.92;;
66946;SDS011;53853;51.982;5.928;2023-02-13T06:49:50;24.88;;;19.02;;
66946;SDS011;53853;51.982;5.928;2023-02-13T06:52:20;23.30;;;18.75;;
66946;SDS011;53853;51.982;5.928;2023-02-13T06:54:50;25.15;;;19.52;;
66946;SDS011;53853;51.982;5.928;2023-02-13T06:57:22;25.80;;;21.00;;
66946;SDS011;53853;51.982;5.928;2023-02-13T06:59:52;24.67;;;21.17;;
66946;SDS011;53853;51.982;5.928;2023-02-13T07:02:22;26.92;;;20.85;;
66946;SDS011;53853;51.982;5.928;2023-02-13T07:04:52;25.40;;;19.75;;
66946;SDS011;53853;51.982;5.928;2023-02-13T07:07:22;26.77;;;20.70;;
66946;SDS011;53853;51.982;5.928;2023-02-13T07:09:52;25.25;;;19.15;;
66946;SDS011;53853;51.982;5.928;2023-02-13T07:12:24;23.77;;;19.60;;
66946;SDS011;53853;51.982;5.928;2023-02-13T07:14:54;24.83;;;20.10;;
66946;SDS011;53853;51.982;5.928;2023-02-13T07:17:24;26.60;;;19.70;;
66946;SDS011;53853;51.982;5.928;2023-02-13T07:19:54;24.67;;;19.52;;
66946;SDS011;53853;51.982;5.928;2023-02-13T07:22:24;24.83;;;18.88;;
66946;SDS011;53853;51.982;5.928;2023-02-13T07:24:54;24.48;;;19.08;;
66946;SDS011;53853;51.982;5.928;2023-02-13T07:27:27;28.13;;;20.08;;
66946;SDS011;53853;51.982;5.928;2023-02-13T07:29:57;24.63;;;19.30;;
66946;SDS011;53853;51.982;5.928;2023-02-13T07:32:27;24.80;;;19.17;;
66946;SDS011;53853;51.982;5.928;2023-02-13T07:34:57;26.17;;;19.25;;
66946;SDS011;53853;51.982;5.928;2023-02-13T07:37:27;28.35;;;21.73;;
66946;SDS011;53853;51.982;5.928;2023-02-13T07:39:57;26.15;;;21.20;;
66946;SDS011;53853;51.982;5.928;2023-02-13T07:42:33;24.70;;;19.40;;
66946;SDS011;53853;51.982;5.928;2023-02-13T07:45:03;26.02;;;19.30;;
66946;SDS011;53853;51.982;5.928;2023-02-13T07:47:34;20.80;;;16.83;;
66946;SDS011;53853;51.982;5.928;2023-02-13T07:50:04;25.10;;;19.33;;
66946;SDS011;53853;51.982;5.928;2023-02-13T07:52:40;24.08;;;19.58;;
66946;SDS011;53853;51.982;5.928;2023-02-13T07:55:10;26.55;;;20.35;;
66946;SDS011;53853;51.982;5.928;2023-02-13T07:57:42;26.88;;;21.02;;
66946;SDS011;53853;51.982;5.928;2023-02-13T08:02:43;28.83;;;21.33;;
66946;SDS011;53853;51.982;5.928;2023-02-13T08:05:13;23.42;;;18.45;;
66946;SDS011;53853;51.982;5.928;2023-02-13T08:07:43;24.42;;;19.75;;
66946;SDS011;53853;51.982;5.928;2023-02-13T08:10:13;25.88;;;19.83;;
66946;SDS011;53853;51.982;5.928;2023-02-13T08:12:58;24.90;;;19.67;;
66946;SDS011;53853;51.982;5.928;2023-02-13T08:15:29;28.13;;;22.02;;
66946;SDS011;53853;51.982;5.928;2023-02-13T08:17:58;25.10;;;18.60;;
66946;SDS011;53853;51.982;5.928;2023-02-13T08:20:28;25.15;;;18.77;;
66946;SDS011;53853;51.982;5.928;2023-02-13T08:23:01;25.27;;;20.50;;
66946;SDS011;53853;51.982;5.928;2023-02-13T08:25:31;27.95;;;21.27;;
66946;SDS011;53853;51.982;5.928;2023-02-13T08:28:04;26.30;;;20.33;;
66946;SDS011;53853;51.982;5.928;2023-02-13T08:30:34;25.20;;;21.13;;
66946;SDS011;53853;51.982;5.928;2023-02-13T08:33:04;26.08;;;21.80;;
66946;SDS011;53853;51.982;5.928;2023-02-13T08:35:34;26.55;;;21.50;;
66946;SDS011;53853;51.982;5.928;2023-02-13T08:38:04;26.38;;;21.35;;
66946;SDS011;53853;51.982;5.928;2023-02-13T08:40:34;27.15;;;20.42;;
66946;SDS011;53853;51.982;5.928;2023-02-13T08:43:06;25.90;;;21.25;;
66946;SDS011;53853;51.982;5.928;2023-02-13T08:45:36;24.38;;;19.98;;
66946;SDS011;53853;51.982;5.928;2023-02-13T08:48:06;26.13;;;21.15;;
66946;SDS011;53853;51.982;5.928;2023-02-13T08:50:36;25.70;;;20.52;;
66946;SDS011;53853;51.982;5.928;2023-02-13T08:53:06;25.23;;;20.23;;
66946;SDS011;53853;51.982;5.928;2023-02-13T08:55:36;23.20;;;18.73;;
66946;SDS011;53853;51.982;5.928;2023-02-13T08:58:08;26.48;;;20.65;;
66946;SDS011;53853;51.982;5.928;2023-02-13T09:00:38;24.58;;;19.58;;
66946;SDS011;53853;51.982;5.928;2023-02-13T09:03:08;23.48;;;19.55;;
66946;SDS011;53853;51.982;5.928;2023-02-13T09:05:38;23.48;;;19.42;;
66946;SDS011;53853;51.982;5.928;2023-02-13T09:08:08;22.52;;;18.75;;
66946;SDS011;53853;51.982;5.928;2023-02-13T09:10:38;25.88;;;21.35;;
66946;SDS011;53853;51.982;5.928;2023-02-13T09:13:12;24.15;;;18.95;;
66946;SDS011;53853;51.982;5.928;2023-02-13T09:15:42;23.95;;;20.48;;
66946;SDS011;53853;51.982;5.928;2023-02-13T09:18:12;24.00;;;19.33;;
66946;SDS011;53853;51.982;5.928;2023-02-13T09:20:42;24.60;;;19.90;;
66946;SDS011;53853;51.982;5.928;2023-02-13T09:23:12;23.75;;;19.42;;
66946;SDS011;53853;51.982;5.928;2023-02-13T09:25:42;27.35;;;23.15;;
66946;SDS011;53853;51.982;5.928;2023-02-13T09:28:14;25.27;;;21.02;;
66946;SDS011;53853;51.982;5.928;2023-02-13T09:30:44;24.08;;;20.48;;
66946;SDS011;53853;51.982;5.928;2023-02-13T09:33:14;23.98;;;20.05;;
66946;SDS011;53853;51.982;5.928;2023-02-13T09:35:46;26.70;;;21.52;;
66946;SDS011;53853;51.982;5.928;2023-02-13T09:38:15;26.08;;;20.95;;
66946;SDS011;53853;51.982;5.928;2023-02-13T09:40:46;25.45;;;19.27;;
66946;SDS011;53853;51.982;5.928;2023-02-13T09:43:25;22.57;;;19.73;;
66946;SDS011;53853;51.982;5.928;2023-02-13T09:45:58;26.83;;;19.83;;
66946;SDS011;53853;51.982;5.928;2023-02-13T09:48:33;25.25;;;20.85;;
66946;SDS011;53853;51.982;5.928;2023-02-13T09:51:08;24.33;;;19.77;;
66946;SDS011;53853;51.982;5.928;2023-02-13T09:53:45;22.55;;;19.23;;
66946;SDS011;53853;51.982;5.928;2023-02-13T09:56:21;19.23;;;16.05;;
66946;SDS011;53853;51.982;5.928;2023-02-13T09:59:08;18.67;;;15.45;;
66946;SDS011;53853;51.982;5.928;2023-02-13T10:01:53;25.42;;;19.88;;
66946;SDS011;53853;51.982;5.928;2023-02-13T10:04:28;20.10;;;17.58;;
66946;SDS011;53853;51.982;5.928;2023-02-13T10:07:12;22.55;;;18.23;;
66946;SDS011;53853;51.982;5.928;2023-02-13T10:09:52;23.85;;;19.92;;
66946;SDS011;53853;51.982;5.928;2023-02-13T10:12:37;21.83;;;17.08;;
66946;SDS011;53853;51.982;5.928;2023-02-13T10:15:27;18.20;;;15.50;;
66946;SDS011;53853;51.982;5.928;2023-02-13T10:18:05;22.75;;;17.52;;
66946;SDS011;53853;51.982;5.928;2023-02-13T10:20:40;21.40;;;16.25;;
66946;SDS011;53853;51.982;5.928;2023-02-13T10:23:17;21.08;;;16.80;;
66946;SDS011;53853;51.982;5.928;2023-02-13T10:25:53;22.70;;;16.70;;
66946;SDS011;53853;51.982;5.928;2023-02-13T10:28:32;19.50;;;16.10;;
66946;SDS011;53853;51.982;5.928;2023-02-13T10:31:09;18.52;;;15.10;;
66946;SDS011;53853;51.982;5.928;2023-02-13T10:33:45;19.17;;;15.45;;
66946;SDS011;53853;51.982;5.928;2023-02-13T10:36:18;19.98;;;16.95;;
66946;SDS011;53853;51.982;5.928;2023-02-13T10:38:54;18.88;;;15.38;;
66946;SDS011;53853;51.982;5.928;2023-02-13T10:41:29;17.08;;;13.52;;
66946;SDS011;53853;51.982;5.928;2023-02-13T10:44:15;18.35;;;15.13;;
66946;SDS011;53853;51.982;5.928;2023-02-13T10:47:06;21.13;;;16.25;;
66946;SDS011;53853;51.982;5.928;2023-02-13T10:49:52;19.45;;;15.57;;
66946;SDS011;53853;51.982;5.928;2023-02-13T10:52:37;19.10;;;15.52;;
66946;SDS011;53853;51.982;5.928;2023-02-13T10:55:23;19.83;;;16.23;;
66946;SDS011;53853;51.982;5.928;2023-02-13T10:58:03;18.83;;;14.95;;
66946;SDS011;53853;51.982;5.928;2023-02-13T11:00:41;18.35;;;15.32;;
66946;SDS011;53853;51.982;5.928;2023-02-13T11:03:20;18.05;;;14.80;;
66946;SDS011;53853;51.982;5.928;2023-02-13T11:05:51;20.02;;;16.50;;
66946;SDS011;53853;51.982;5.928;2023-02-13T11:08:23;18.30;;;14.20;;
66946;SDS011;53853;51.982;5.928;2023-02-13T11:10:56;18.98;;;14.82;;
66946;SDS011;53853;51.982;5.928;2023-02-13T11:13:27;18.65;;;15.13;;
66946;SDS011;53853;51.982;5.928;2023-02-13T11:15:59;15.98;;;13.63;;
66946;SDS011;53853;51.982;5.928;2023-02-13T11:18:33;16.02;;;14.23;;
66946;SDS011;53853;51.982;5.928;2023-02-13T11:21:07;23.25;;;18.50;;
66946;SDS011;53853;51.982;5.928;2023-02-13T11:23:39;18.73;;;15.65;;
66946;SDS011;53853;51.982;5.928;2023-02-13T11:26:13;15.13;;;13.30;;
66946;SDS011;53853;51.982;5.928;2023-02-13T11:28:51;18.67;;;15.63;;
66946;SDS011;53853;51.982;5.928;2023-02-13T11:31:25;14.63;;;12.88;;
66946;SDS011;53853;51.982;5.928;2023-02-13T11:33:59;20.27;;;15.40;;
66946;SDS011;53853;51.982;5.928;2023-02-13T11:36:51;17.05;;;13.98;;
66946;SDS011;53853;51.982;5.928;2023-02-13T11:39:24;17.00;;;13.52;;
66946;SDS011;53853;51.982;5.928;2023-02-13T11:41:55;18.65;;;15.85;;
66946;SDS011;53853;51.982;5.928;2023-02-13T11:44:25;16.27;;;14.00;;
66946;SDS011;53853;51.982;5.928;2023-02-13T11:46:57;14.85;;;12.95;;
66946;SDS011;53853;51.982;5.928;2023-02-13T11:49:32;17.38;;;14.75;;
66946;SDS011;53853;51.982;5.928;2023-02-13T11:52:04;17.63;;;14.75;;
66946;SDS011;53853;51.982;5.928;2023-02-13T11:54:42;16.70;;;12.70;;
66946;SDS011;53853;51.982;5.928;2023-02-13T11:57:18;15.80;;;12.60;;
66946;SDS011;53853;51.982;5.928;2023-02-13T11:59:49;15.70;;;13.27;;
66946;SDS011;53853;51.982;5.928;2023-02-13T12:02:21;15.25;;;12.05;;
66946;SDS011;53853;51.982;5.928;2023-02-13T12:07:43;18.45;;;15.13;;
66946;SDS011;53853;51.982;5.928;2023-02-13T12:10:19;17.63;;;14.30;;
66946;SDS011;53853;51.982;5.928;2023-02-13T12:12:52;15.02;;;12.30;;
66946;SDS011;53853;51.982;5.928;2023-02-13T12:15:24;19.50;;;15.57;;
66946;SDS011;53853;51.982;5.928;2023-02-13T12:18:01;17.35;;;13.93;;
66946;SDS011;53853;51.982;5.928;2023-02-13T12:20:42;19.40;;;15.68;;
66946;SDS011;53853;51.982;5.928;2023-02-13T12:23:24;15.73;;;13.20;;
66946;SDS011;53853;51.982;5.928;2023-02-13T12:26:07;18.27;;;13.93;;
66946;SDS011;53853;51.982;5.928;2023-02-13T12:28:57;19.27;;;15.68;;
66946;SDS011;53853;51.982;5.928;2023-02-13T12:31:49;15.68;;;12.10;;
66946;SDS011;53853;51.982;5.928;2023-02-13T12:34:38;17.33;;;13.30;;
66946;SDS011;53853;51.982;5.928;2023-02-13T12:37:35;16.58;;;13.45;;
66946;SDS011;53853;51.982;5.928;2023-02-13T12:40:36;15.85;;;13.27;;
66946;SDS011;53853;51.982;5.928;2023-02-13T12:46:28;17.77;;;14.27;;
66946;SDS011;53853;51.982;5.928;2023-02-13T12:49:07;15.75;;;13.48;;
66946;SDS011;53853;51.982;5.928;2023-02-13T12:51:49;15.47;;;13.73;;
66946;SDS011;53853;51.982;5.928;2023-02-13T12:54:32;17.67;;;15.85;;
66946;SDS011;53853;51.982;5.928;2023-02-13T12:57:18;17.15;;;15.43;;
66946;SDS011;53853;51.982;5.928;2023-02-13T13:00:08;22.48;;;20.02;;
66946;SDS011;53853;51.982;5.928;2023-02-13T13:05:47;22.48;;;20.13;;
66946;SDS011;53853;51.982;5.928;2023-02-13T13:08:32;23.48;;;19.25;;
66946;SDS011;53853;51.982;5.928;2023-02-13T13:11:20;21.52;;;19.23;;
66946;SDS011;53853;51.982;5.928;2023-02-13T13:14:07;18.08;;;16.17;;
66946;SDS011;53853;51.982;5.928;2023-02-13T13:16:44;20.65;;;18.30;;
66946;SDS011;53853;51.982;5.928;2023-02-13T13:19:23;19.58;;;17.58;;
66946;SDS011;53853;51.982;5.928;2023-02-13T13:22:03;18.85;;;16.88;;
66946;SDS011;53853;51.982;5.928;2023-02-13T13:24:46;18.52;;;16.67;;
66946;SDS011;53853;51.982;5.928;2023-02-13T13:27:26;18.33;;;15.93;;
66946;SDS011;53853;51.982;5.928;2023-02-13T13:30:00;16.45;;;14.60;;
66946;SDS011;53853;51.982;5.928;2023-02-13T13:35:04;18.73;;;16.73;;
66946;SDS011;53853;51.982;5.928;2023-02-13T13:37:41;23.00;;;20.52;;
66946;SDS011;53853;51.982;5.928;2023-02-13T13:40:30;20.92;;;18.70;;
66946;SDS011;53853;51.982;5.928;2023-02-13T13:43:12;21.80;;;19.55;;
66946;SDS011;53853;51.982;5.928;2023-02-13T13:45:53;20.10;;;17.35;;
66946;SDS011;53853;51.982;5.928;2023-02-13T13:51:25;19.88;;;17.77;;
66946;SDS011;53853;51.982;5.928;2023-02-13T14:02:49;20.73;;;18.55;;
66946;SDS011;53853;51.982;5.928;2023-02-13T14:11:33;15.43;;;13.85;;
66946;SDS011;53853;51.982;5.928;2023-02-13T14:17:14;20.50;;;17.55;;
66946;SDS011;53853;51.982;5.928;2023-02-13T14:19:48;18.70;;;16.70;;
66946;SDS011;53853;51.982;5.928;2023-02-13T14:22:25;22.20;;;19.17;;
66946;SDS011;53853;51.982;5.928;2023-02-13T14:25:03;19.10;;;16.98;;
66946;SDS011;53853;51.982;5.928;2023-02-13T14:27:35;21.63;;;18.10;;
66946;SDS011;53853;51.982;5.928;2023-02-13T14:30:21;19.98;;;17.60;;
66946;SDS011;53853;51.982;5.928;2023-02-13T14:32:55;19.83;;;16.92;;
66946;SDS011;53853;51.982;5.928;2023-02-13T14:35:33;21.38;;;18.27;;
66946;SDS011;53853;51.982;5.928;2023-02-13T14:38:05;18.75;;;16.75;;
66946;SDS011;53853;51.982;5.928;2023-02-13T14:40:49;17.33;;;15.40;;
66946;SDS011;53853;51.982;5.928;2023-02-13T14:43:28;19.58;;;17.48;;
66946;SDS011;53853;51.982;5.928;2023-02-13T14:46:23;17.38;;;15.35;;
66946;SDS011;53853;51.982;5.928;2023-02-13T14:49:04;20.27;;;17.50;;
66946;SDS011;53853;51.982;5.928;2023-02-13T14:51:45;16.17;;;13.77;;
66946;SDS011;53853;51.982;5.928;2023-02-13T14:54:18;22.10;;;18.73;;
66946;SDS011;53853;51.982;5.928;2023-02-13T14:56:56;18.20;;;16.30;;
66946;SDS011;53853;51.982;5.928;2023-02-13T14:59:35;14.40;;;12.88;;
66946;SDS011;53853;51.982;5.928;2023-02-13T15:04:45;16.85;;;14.52;;
66946;SDS011;53853;51.982;5.928;2023-02-13T15:07:22;18.38;;;15.95;;
66946;SDS011;53853;51.982;5.928;2023-02-13T15:09:57;18.45;;;16.45;;
66946;SDS011;53853;51.982;5.928;2023-02-13T15:12:30;20.13;;;17.95;;
66946;SDS011;53853;51.982;5.928;2023-02-13T15:15:01;17.63;;;15.75;;
66946;SDS011;53853;51.982;5.928;2023-02-13T15:17:49;16.02;;;13.63;;
66946;SDS011;53853;51.982;5.928;2023-02-13T15:20:24;16.05;;;14.13;;
66946;SDS011;53853;51.982;5.928;2023-02-13T15:22:58;14.75;;;13.25;;
66946;SDS011;53853;51.982;5.928;2023-02-13T15:25:32;13.48;;;12.13;;
66946;SDS011;53853;51.982;5.928;2023-02-13T15:28:04;14.82;;;13.30;;
66946;SDS011;53853;51.982;5.928;2023-02-13T15:30:36;16.92;;;14.95;;
66946;SDS011;53853;51.982;5.928;2023-02-13T15:33:14;16.30;;;14.35;;
66946;SDS011;53853;51.982;5.928;2023-02-13T15:35:46;17.20;;;15.32;;
66946;SDS011;53853;51.982;5.928;2023-02-13T15:38:26;17.00;;;14.88;;
66946;SDS011;53853;51.982;5.928;2023-02-13T15:40:58;17.33;;;15.20;;
66946;SDS011;53853;51.982;5.928;2023-02-13T15:43:31;15.30;;;13.65;;
66946;SDS011;53853;51.982;5.928;2023-02-13T15:46:03;16.70;;;14.20;;
66946;SDS011;53853;51.982;5.928;2023-02-13T15:48:36;14.73;;;12.90;;
66946;SDS011;53853;51.982;5.928;2023-02-13T15:51:06;15.27;;;12.52;;
66946;SDS011;53853;51.982;5.928;2023-02-13T15:53:38;17.70;;;14.73;;
66946;SDS011;53853;51.982;5.928;2023-02-13T15:56:19;17.30;;;15.50;;
66946;SDS011;53853;51.982;5.928;2023-02-13T15:58:49;16.27;;;13.82;;